Time;durP1;ratioP1;P1;durP2;ratioP2;P2;SDS_P1;SDS_P2;PMS_P1;PMS_P2;Temp;Humidity;BMP_temperature;BMP_pressure;BME280_temperature;BME280_humidity;BME280_pressure;Samples;Min_cycle;Max_cycle;Signal;HPM_P1;HPM_P2
2022/05/01 00:01:56;;;;;;;6.65;5.53;;;;;;;14.05;44.13;99336.59;5106002;28;20040;-72
2022/05/01 00:04:28;;;;;;;6.88;4.95;;;;;;;14.02;44.00;99337.66;5106064;28;20069;-72
2022/05/01 00:07:00;;;;;;;6.85;4.10;;;;;;;13.68;43.87;99296.53;5105909;28;20040;-72
2022/05/01 00:09:33;;;;;;;6.35;4.50;;;;;;;13.89;43.74;99333.31;5105859;28;20044;-73
2022/05/01 00:12:08;;;;;;;6.38;4.82;;;;;;;13.93;43.89;99342.78;5105853;28;20039;-74
2022/05/01 00:14:41;;;;;;;7.40;5.80;;;;;;;13.93;43.46;99332.97;5105795;28;20044;-74
2022/05/01 00:17:13;;;;;;;11.05;8.27;;;;;;;13.94;43.64;99350.66;5106067;28;20048;-74
2022/05/01 00:19:45;;;;;;;6.85;5.72;;;;;;;13.60;43.98;99290.03;5104853;28;20044;-74
2022/05/01 00:22:17;;;;;;;7.40;6.15;;;;;;;13.90;44.16;99341.19;5105950;28;20040;-74
2022/05/01 00:24:50;;;;;;;6.80;5.45;;;;;;;13.84;45.05;99356.75;5104963;28;20040;-73
2022/05/01 00:27:24;;;;;;;7.45;5.78;;;;;;;13.88;44.44;99353.75;5122178;28;20052;-73
2022/05/01 00:29:57;;;;;;;10.05;7.20;;;;;;;13.90;44.45;99362.50;5104931;28;20040;-79
2022/05/01 00:36:25;;;;;;;7.30;5.30;;;;;;;13.98;44.37;99356.66;5105436;28;20124;-73
2022/05/01 00:38:24;;;;;;;6.15;4.82;;;;;;;13.99;44.03;99350.34;5043676;28;20061;-73
2022/05/01 00:40:57;;;;;;;10.85;6.38;;;;;;;13.86;44.60;99349.50;5095660;28;20059;-73
2022/05/01 00:43:30;;;;;;;7.35;5.97;;;;;;;13.79;45.13;99365.03;5105587;28;20044;-73
2022/05/01 00:46:02;;;;;;;7.37;6.30;;;;;;;13.48;44.86;99307.69;5105369;28;20086;-73
2022/05/01 00:48:35;;;;;;;10.40;7.07;;;;;;;13.71;45.90;99352.25;5105499;28;20050;-73
2022/05/01 00:51:08;;;;;;;8.45;7.30;;;;;;;13.72;46.38;99358.44;5105987;28;20040;-73
2022/05/01 00:53:41;;;;;;;8.00;6.87;;;;;;;13.72;46.80;99353.09;5105526;28;20089;-73
2022/05/01 00:56:14;;;;;;;8.70;7.22;;;;;;;13.71;47.62;99359.38;5115533;28;20032;-73
2022/05/01 00:58:49;;;;;;;9.23;7.55;;;;;;;13.67;47.90;99356.06;5113142;28;20044;-73
2022/05/01 01:01:22;;;;;;;10.68;7.68;;;;;;;13.54;48.54;99319.72;5106927;28;20036;-73
2022/05/01 01:03:54;;;;;;;9.75;7.45;;;;;;;13.79;48.14;99359.72;5106264;28;20093;-73
2022/05/01 01:06:28;;;;;;;8.85;6.93;;;;;;;13.78;48.29;99358.88;5105421;28;20039;-74
2022/05/01 01:09:00;;;;;;;9.20;7.03;;;;;;;13.77;48.49;99350.97;5105960;28;20093;-73
2022/05/01 01:11:33;;;;;;;7.18;6.43;;;;;;;13.68;50.49;99346.28;5105945;28;20044;-73
2022/05/01 01:14:07;;;;;;;8.85;6.32;;;;;;;13.62;50.30;99358.19;5106045;28;20089;-73
2022/05/01 01:16:41;;;;;;;7.55;6.75;;;;;;;13.62;49.47;99360.84;5105601;28;20267;-73
2022/05/01 01:19:13;;;;;;;7.20;6.35;;;;;;;13.63;49.33;99353.72;5105038;28;20040;-73
2022/05/01 01:21:52;;;;;;;7.05;5.95;;;;;;;13.60;51.84;99354.78;5105492;28;20208;-73
2022/05/01 01:24:24;;;;;;;6.97;5.95;;;;;;;13.44;49.49;99322.16;5104396;28;20062;-73
2022/05/01 01:26:57;;;;;;;7.90;7.07;;;;;;;13.62;49.45;99354.69;5105602;28;20044;-73
2022/05/01 01:32:20;;;;;;;10.30;7.80;;;;;;;13.50;50.98;99353.69;5108830;28;20047;-73
2022/05/01 01:34:55;;;;;;;9.95;6.85;;;;;;;13.16;51.45;99345.25;5108723;28;20081;-73
2022/05/01 01:37:28;;;;;;;;;;;;;;;13.36;54.39;99351.06;5109405;28;20086;-73
2022/05/01 01:40:01;;;;;;;7.72;6.07;;;;;;;13.42;50.24;99350.69;5108805;28;19926;-73
2022/05/01 01:42:36;;;;;;;7.97;7.10;;;;;;;13.47;50.73;99343.25;5108665;28;20062;-73
2022/05/01 01:45:09;;;;;;;6.95;6.13;;;;;;;13.44;50.48;99354.09;5108614;28;20090;-72
2022/05/01 01:47:42;;;;;;;8.70;7.15;;;;;;;13.47;50.80;99340.59;5108001;28;20043;-73
2022/05/01 01:50:15;;;;;;;7.60;6.90;;;;;;;13.47;50.35;99344.09;5108659;28;20085;-73
2022/05/01 01:52:48;;;;;;;7.90;7.10;;;;;;;13.48;51.44;99344.97;5107829;28;20036;-73
2022/05/01 01:55:21;;;;;;;8.32;6.95;;;;;;;13.20;50.90;99306.00;5108791;28;20353;-74
2022/05/01 01:57:53;;;;;;;7.32;6.57;;;;;;;13.16;51.53;99300.03;5108746;28;20085;-73
2022/05/01 02:00:26;;;;;;;8.13;7.15;;;;;;;13.40;51.21;99372.06;5108558;28;20040;-73
2022/05/01 02:02:58;;;;;;;8.32;6.80;;;;;;;13.37;51.07;99342.13;5108431;28;20086;-73
2022/05/01 02:05:31;;;;;;;7.47;6.57;;;;;;;13.39;51.09;99346.41;5108468;28;20044;-73
2022/05/01 02:08:08;;;;;;;8.68;7.38;;;;;;;13.31;53.02;99340.72;5107563;28;20036;-73
2022/05/01 02:10:40;;;;;;;8.88;6.80;;;;;;;13.34;52.07;99342.34;5108386;28;20089;-73
2022/05/01 02:13:12;;;;;;;8.38;7.53;;;;;;;13.33;51.30;99345.94;5108128;28;20044;-73
2022/05/01 02:15:44;;;;;;;7.85;6.70;;;;;;;13.34;51.87;99345.00;5108395;28;20044;-73
2022/05/01 02:18:14;;;;;;;8.30;6.93;;;;;;;13.31;51.69;99345.19;5108338;28;20028;-73
2022/05/01 02:23:36;;;;;;;9.35;6.70;;;;;;;13.15;53.29;99354.19;5107931;28;20086;-73
2022/05/01 02:26:08;;;;;;;7.55;6.65;;;;;;;13.15;52.08;99348.88;5108233;28;20039;-73
2022/05/01 02:28:40;;;;;;;8.52;6.90;;;;;;;13.19;51.73;99351.34;5108311;28;20040;-73
2022/05/01 02:31:12;;;;;;;7.60;6.68;;;;;;;13.20;52.06;99345.06;5108046;28;20044;-73
2022/05/01 02:33:45;;;;;;;8.57;7.30;;;;;;;11.85;52.95;99153.50;5108175;28;20040;-72
2022/05/01 02:36:17;;;;;;;8.77;6.32;;;;;;;12.80;52.51;99299.78;5108121;28;20051;-71
2022/05/01 02:38:50;;;;;;;8.20;7.35;;;;;;;13.08;52.72;99338.75;5108255;28;20308;-71
2022/05/01 02:41:23;;;;;;;9.40;7.25;;;;;;;13.05;53.20;99344.25;5107851;28;20040;-74
2022/05/01 02:43:56;;;;;;;7.63;6.82;;;;;;;11.81;52.86;99197.13;5107958;28;20204;-73
2022/05/01 02:46:28;;;;;;;10.05;6.75;;;;;;;12.78;52.98;99313.19;5107484;28;20040;-72
2022/05/01 02:49:01;;;;;;;8.10;7.13;;;;;;;12.68;53.71;99306.75;5106873;28;20040;-72
2022/05/01 02:51:33;;;;;;;9.23;7.68;;;;;;;12.94;53.54;99360.91;5107372;28;20040;-72
2022/05/01 02:54:07;;;;;;;9.30;7.50;;;;;;;12.89;53.72;99340.88;5107575;28;20040;-72
2022/05/01 02:56:39;;;;;;;7.45;6.68;;;;;;;12.85;53.46;99353.53;5107239;28;20040;-73
2022/05/01 02:59:11;;;;;;;10.57;7.72;;;;;;;12.85;53.71;99353.53;5106332;28;20044;-73
2022/05/01 03:01:44;;;;;;;8.35;6.97;;;;;;;12.54;53.95;99306.78;5107343;28;20036;-72
2022/05/01 03:04:17;;;;;;;8.15;6.45;;;;;;;12.82;53.96;99354.59;5107068;28;20044;-72
2022/05/01 03:06:49;;;;;;;8.10;6.63;;;;;;;12.80;54.27;99358.28;5107419;28;20043;-74
2022/05/01 03:09:23;;;;;;;7.95;6.55;;;;;;;12.79;53.93;99352.13;5106515;28;20093;-75
2022/05/01 03:11:55;;;;;;;7.18;6.45;;;;;;;12.80;54.25;99358.28;5106706;28;20040;-73
2022/05/01 03:14:28;;;;;;;8.00;6.22;;;;;;;12.81;54.19;99354.69;5106397;28;20048;-73
2022/05/01 03:17:01;;;;;;;7.60;6.90;;;;;;;12.78;53.33;99362.84;5107334;28;20174;-73
2022/05/01 03:22:23;;;;;;;7.15;6.45;;;;;;;12.52;54.30;99336.13;5106275;28;20066;-73
2022/05/01 03:24:58;;;;;;;9.32;7.50;;;;;;;12.66;55.61;99364.50;5106806;28;20047;-73
2022/05/01 03:27:31;;;;;;;8.82;7.25;;;;;;;12.40;54.45;99320.09;5106789;28;20036;-73
2022/05/01 03:30:19;;;;;;;8.10;6.43;;;;;;;12.64;54.75;99360.22;5105997;28;20036;-73
2022/05/01 03:32:52;;;;;;;7.57;6.15;;;;;;;11.81;53.98;99245.78;5106388;28;20044;-73
2022/05/01 03:35:24;;;;;;;7.85;6.55;;;;;;;12.61;55.37;99373.72;5107063;28;20048;-73
2022/05/01 03:37:57;;;;;;;7.78;6.80;;;;;;;12.62;54.68;99375.41;5106420;28;20048;-73
2022/05/01 03:40:33;;;;;;;9.43;5.85;;;;;;;12.59;55.35;99372.97;5106827;28;20283;-74
2022/05/01 03:43:05;;;;;;;9.55;7.05;;;;;;;12.60;54.72;99372.00;5106503;28;20247;-73
2022/05/01 03:45:38;;;;;;;7.65;6.63;;;;;;;12.34;54.67;99331.97;5106714;28;20050;-73
2022/05/01 03:48:08;;;;;;;8.45;6.57;;;;;;;12.26;54.79;99352.00;5106598;28;20047;-73
2022/05/01 03:50:38;;;;;;;15.82;7.65;;;;;;;12.58;55.30;99376.56;5106315;28;20032;-73
2022/05/01 03:53:09;;;;;;;8.40;6.88;;;;;;;12.58;55.10;99379.22;5105992;28;20036;-73
2022/05/01 03:55:40;;;;;;;7.00;6.30;;;;;;;12.60;55.56;99378.19;5106532;28;20044;-73
2022/05/01 03:58:09;;;;;;;7.80;6.25;;;;;;;12.60;55.22;99387.97;5105634;28;20059;-73
2022/05/01 04:00:39;;;;;;;8.07;7.15;;;;;;;12.51;54.94;99379.59;5106180;28;20065;-73
2022/05/01 04:03:09;;;;;;;7.82;6.80;;;;;;;12.52;55.17;99380.47;5106357;28;20099;-73
2022/05/01 04:05:40;;;;;;;7.88;7.07;;;;;;;12.26;55.41;99347.53;5105898;28;20223;-73
2022/05/01 04:08:09;;;;;;;8.35;7.25;;;;;;;12.53;55.65;99387.50;5105539;28;20048;-73
2022/05/01 04:10:42;;;;;;;7.13;6.38;;;;;;;12.52;56.28;99391.09;5105934;28;20237;-73
2022/05/01 04:13:15;;;;;;;10.10;7.43;;;;;;;12.55;54.99;99392.72;5105948;28;20169;-74
2022/05/01 04:15:45;;;;;;;7.63;6.38;;;;;;;12.53;55.54;99392.81;5105966;28;20296;-73
2022/05/01 04:18:15;;;;;;;7.93;6.30;;;;;;;10.72;55.33;99102.09;5106509;28;20295;-74
2022/05/01 04:20:45;;;;;;;6.72;5.53;;;;;;;12.57;55.03;99398.78;5105913;28;20046;-74
2022/05/01 04:23:15;;;;;;;6.85;6.15;;;;;;;12.57;55.65;99404.09;5106372;28;20028;-74
2022/05/01 04:25:47;;;;;;;7.75;6.15;;;;;;;12.56;56.29;99405.91;5105316;28;20044;-74
2022/05/01 04:28:15;;;;;;;8.57;7.53;;;;;;;12.60;55.49;99404.75;5105301;28;20055;-74
2022/05/01 04:30:46;;;;;;;8.13;7.13;;;;;;;12.59;55.96;99404.84;5105093;28;20106;-74
2022/05/01 04:33:16;;;;;;;7.93;6.70;;;;;;;12.58;55.66;99408.47;5104913;28;20036;-74
2022/05/01 04:35:48;;;;;;;8.30;7.43;;;;;;;12.55;55.76;99404.19;5105666;28;20067;-74
2022/05/01 04:38:18;;;;;;;7.93;7.10;;;;;;;12.52;55.51;99405.25;5106325;28;20083;-74
2022/05/01 04:40:49;;;;;;;7.93;7.00;;;;;;;12.58;56.63;99404.00;5105435;28;20056;-74
2022/05/01 04:43:22;;;;;;;7.50;6.47;;;;;;;12.54;55.99;99404.28;5106865;28;20082;-74
2022/05/01 04:45:57;;;;;;;8.13;6.55;;;;;;;12.55;56.24;99404.19;5107502;28;20044;-74
2022/05/01 04:48:29;;;;;;;;;;;;;;;12.57;58.10;99396.97;5106242;28;20036;-74
2022/05/01 04:51:02;;;;;;;7.25;6.20;;;;;;;12.61;55.48;99406.47;5105143;28;19961;-75
2022/05/01 04:53:34;;;;;;;7.40;6.53;;;;;;;12.62;55.97;99404.66;5105551;28;20081;-75
2022/05/01 04:58:54;;;;;;;7.82;6.40;;;;;;;12.64;55.43;99411.59;5084740;28;20064;-74
2022/05/01 05:01:26;;;;;;;13.85;7.45;;;;;;;12.68;56.04;99404.28;5105152;28;20077;-74
2022/05/01 05:03:59;;;;;;;8.70;6.35;;;;;;;12.68;55.37;99397.16;5105980;28;20036;-74
2022/05/01 05:06:31;;;;;;;7.93;6.80;;;;;;;12.68;55.84;99404.28;5109593;28;20044;-74
2022/05/01 05:11:55;;;;;;;8.35;7.10;;;;;;;12.67;56.40;99414.06;5110729;28;20036;-74
2022/05/01 05:14:27;;;;;;;7.17;6.47;;;;;;;12.69;55.66;99412.16;5110726;28;20044;-74
2022/05/01 05:17:00;;;;;;;8.00;7.20;;;;;;;12.72;55.87;99417.28;5110991;28;20711;-74
2022/05/01 05:19:32;;;;;;;7.88;7.07;;;;;;;12.77;55.38;99409.03;5110579;28;20043;-74
2022/05/01 05:22:05;;;;;;;10.30;7.03;;;;;;;12.81;55.15;99414.03;5110787;28;20085;-74
2022/05/01 05:24:37;;;;;;;9.48;7.20;;;;;;;12.79;55.78;99404.47;5109809;28;20047;-74
2022/05/01 05:27:12;;;;;;;9.43;7.97;;;;;;;12.83;56.07;99405.97;5110446;28;20040;-74
2022/05/01 05:29:44;;;;;;;7.82;7.03;;;;;;;12.91;55.26;99408.16;5110732;28;20051;-74
2022/05/01 05:32:17;;;;;;;8.75;7.38;;;;;;;12.28;55.39;99303.13;5109271;28;20089;-74
2022/05/01 05:34:49;;;;;;;7.47;6.68;;;;;;;12.97;55.57;99411.25;5109831;28;20039;-74
2022/05/01 05:37:22;;;;;;;8.68;6.88;;;;;;;12.71;55.64;99394.31;5110018;28;20067;-75
2022/05/01 05:39:54;;;;;;;11.50;8.20;;;;;;;12.99;55.24;99425.31;5110654;28;20040;-74
2022/05/01 05:42:28;;;;;;;7.28;6.30;;;;;;;13.03;55.78;99421.50;5110758;28;20040;-74
2022/05/01 05:45:00;;;;;;;8.73;6.37;;;;;;;12.99;55.24;99417.34;5109899;28;20261;-74
2022/05/01 05:47:33;;;;;;;7.82;7.00;;;;;;;12.69;55.46;99376.75;5109931;28;20231;-74
2022/05/01 05:50:06;;;;;;;8.43;7.53;;;;;;;12.97;56.17;99419.25;5109376;28;20048;-74
2022/05/01 05:52:38;;;;;;;8.38;6.97;;;;;;;13.02;55.43;99422.47;5109394;28;20044;-74
2022/05/01 05:55:10;;;;;;;7.38;6.32;;;;;;;13.02;55.43;99421.63;5110023;28;20040;-74
2022/05/01 05:57:44;;;;;;;8.13;6.70;;;;;;;13.04;55.56;99415.25;5110369;28;20048;-74
2022/05/01 06:00:17;;;;;;;7.38;6.45;;;;;;;13.10;56.03;99424.63;5110278;28;20039;-74
2022/05/01 06:02:49;;;;;;;7.88;6.47;;;;;;;13.16;55.28;99426.91;5109599;28;20185;-74
2022/05/01 06:05:22;;;;;;;8.90;8.00;;;;;;;13.16;55.35;99419.78;5109466;28;20185;-74
2022/05/01 06:07:54;;;;;;;7.82;6.82;;;;;;;13.21;55.64;99429.25;5109539;28;20040;-75
2022/05/01 06:10:26;;;;;;;9.98;8.27;;;;;;;13.32;55.35;99442.72;5109585;28;20040;-74
2022/05/01 06:13:00;;;;;;;8.90;7.50;;;;;;;13.37;54.98;99430.81;5109763;28;20097;-74
2022/05/01 06:15:32;;;;;;;6.60;5.90;;;;;;;13.44;54.70;99428.66;5108619;28;20089;-74
2022/05/01 06:18:04;;;;;;;7.68;6.85;;;;;;;12.70;54.35;99283.56;5108116;28;20044;-74
2022/05/01 06:20:37;;;;;;;7.35;6.45;;;;;;;13.85;53.69;99430.38;5109351;28;20036;-74
2022/05/01 06:23:09;;;;;;;7.00;6.15;;;;;;;13.87;53.86;99434.63;5108498;28;20066;-75
2022/05/01 06:25:43;;;;;;;8.18;6.70;;;;;;;13.99;53.28;99668.31;5108341;28;20040;-75
2022/05/01 06:28:12;;;;;;;7.90;7.10;;;;;;;13.94;54.19;99437.75;5107250;28;20260;-74
2022/05/01 06:30:43;;;;;;;9.00;7.10;;;;;;;12.72;54.05;99270.19;5108252;28;20044;-74
2022/05/01 06:33:13;;;;;;;7.13;6.43;;;;;;;13.98;53.59;99444.56;5108416;28;20062;-74
2022/05/01 06:35:41;;;;;;;8.27;7.20;;;;;;;12.98;53.01;99232.06;5107091;28;20112;-74
2022/05/01 06:38:11;;;;;;;8.13;7.13;;;;;;;13.30;53.77;99295.59;5108167;28;20120;-75
2022/05/01 06:40:43;;;;;;;8.10;7.30;;;;;;;14.17;53.91;99442.34;5108289;28;20086;-75
2022/05/01 06:43:13;;;;;;;10.40;7.63;;;;;;;14.12;53.33;99404.50;5107940;28;20044;-74
2022/05/01 06:45:42;;;;;;;7.78;6.95;;;;;;;14.37;53.51;99448.97;5107253;28;20072;-75
2022/05/01 06:48:12;;;;;;;9.32;7.30;;;;;;;14.44;52.95;99448.44;5107898;28;20056;-75
2022/05/01 06:50:41;;;;;;;7.68;6.82;;;;;;;14.53;52.64;99449.63;5106972;28;20036;-75
2022/05/01 06:53:12;;;;;;;9.25;7.45;;;;;;;14.58;52.52;99449.34;5108018;28;20047;-75
2022/05/01 06:55:41;;;;;;;7.75;6.90;;;;;;;14.57;52.50;99451.16;5107871;28;20036;-72
2022/05/01 06:58:13;;;;;;;7.78;6.63;;;;;;;14.55;52.72;99444.19;5107497;28;20044;-72
2022/05/01 07:00:43;;;;;;;7.90;6.82;;;;;;;14.74;52.41;99450.84;5107103;28;20355;-74
2022/05/01 07:03:12;;;;;;;7.72;6.93;;;;;;;15.02;51.58;99438.22;5107958;28;20061;-74
2022/05/01 07:05:42;;;;;;;9.70;7.80;;;;;;;15.25;51.59;99442.72;5107829;28;20051;-74
2022/05/01 07:08:13;;;;;;;8.48;7.18;;;;;;;15.52;51.04;99444.34;5107847;28;20047;-74
2022/05/01 07:10:42;;;;;;;7.60;6.75;;;;;;;15.74;50.71;99433.78;5107496;28;20103;-75
2022/05/01 07:13:14;;;;;;;8.48;6.65;;;;;;;15.94;49.91;99438.47;5107497;28;20040;-75
2022/05/01 07:15:43;;;;;;;8.90;8.00;;;;;;;16.06;49.45;99431.34;5107375;28;20040;-74
2022/05/01 07:18:13;;;;;;;7.80;6.65;;;;;;;16.03;49.36;99434.25;5107565;28;20035;-74
2022/05/01 07:20:44;;;;;;;8.75;7.53;;;;;;;15.66;49.93;99396.97;5106244;28;20039;-75
2022/05/01 07:23:13;;;;;;;8.70;7.80;;;;;;;15.85;49.77;99423.13;5106915;28;20111;-75
2022/05/01 07:25:43;;;;;;;8.27;7.22;;;;;;;16.01;49.46;99433.50;5106869;28;20047;-75
2022/05/01 07:28:15;;;;;;;9.38;6.80;;;;;;;15.91;49.37;99387.94;5106262;28;20028;-75
2022/05/01 07:30:43;;;;;;;8.43;6.60;;;;;;;16.16;49.41;99429.66;5106981;28;20040;-75
2022/05/01 07:33:14;;;;;;;6.28;5.40;;;;;;;16.24;49.18;99432.59;5106934;28;20028;-75
2022/05/01 07:35:44;;;;;;;7.72;6.18;;;;;;;16.03;48.91;99396.81;5105781;28;20059;-75
2022/05/01 07:38:14;;;;;;;8.07;6.82;;;;;;;15.36;48.98;99279.06;5106343;28;20052;-75
2022/05/01 07:40:44;;;;;;;6.60;5.65;;;;;;;16.15;49.09;99403.91;5107031;28;20103;-75
2022/05/01 07:43:15;;;;;;;7.28;6.13;;;;;;;16.41;48.74;99446.50;5106411;28;20040;-75
2022/05/01 07:45:45;;;;;;;6.57;5.35;;;;;;;16.36;48.61;99445.03;5105727;28;20036;-75
2022/05/01 07:48:14;;;;;;;6.68;5.97;;;;;;;16.35;49.10;99435.28;5106084;28;20062;-75
2022/05/01 07:50:44;;;;;;;6.50;5.45;;;;;;;16.32;48.93;99440.03;5105868;28;20050;-75
2022/05/01 07:53:16;;;;;;;6.35;5.75;;;;;;;16.27;49.25;99440.38;5105628;28;20040;-75
2022/05/01 07:55:45;;;;;;;7.25;6.07;;;;;;;16.22;49.27;99441.72;5106023;28;20040;-75
2022/05/01 07:58:16;;;;;;;7.22;6.18;;;;;;;16.13;49.64;99435.25;5105568;28;20044;-75
2022/05/01 08:00:45;;;;;;;7.70;6.40;;;;;;;16.09;49.31;99436.47;5106157;28;20105;-75
2022/05/01 08:06:04;;;;;;;9.43;5.85;;;;;;;16.04;49.51;99430.59;5106021;28;20044;-75
2022/05/01 08:08:37;;;;;;;8.20;6.22;;;;;;;16.03;49.22;99427.09;5105808;28;20044;-74
2022/05/01 08:11:12;;;;;;;7.82;6.40;;;;;;;16.02;49.55;99429.88;5106137;28;20058;-75
2022/05/01 08:13:46;;;;;;;7.07;6.10;;;;;;;15.95;49.65;99426.81;5105095;28;20219;-74
2022/05/01 08:16:19;;;;;;;8.68;6.35;;;;;;;15.97;49.78;99440.06;5106153;28;20048;-75
2022/05/01 08:21:41;;;;;;;7.65;6.82;;;;;;;15.93;49.97;99451.97;5106121;28;20062;-75
2022/05/01 08:24:15;;;;;;;8.35;6.72;;;;;;;15.99;50.09;99451.50;5105964;28;20043;-75
2022/05/01 08:26:48;;;;;;;6.90;5.93;;;;;;;16.06;49.86;99459.91;5105460;28;20349;-75
2022/05/01 08:29:21;;;;;;;6.18;5.50;;;;;;;16.05;49.86;99464.38;5105744;28;20246;-75
2022/05/01 08:31:54;;;;;;;7.57;6.20;;;;;;;15.96;50.32;99465.94;5105679;28;20040;-75
2022/05/01 08:34:28;;;;;;;8.18;7.38;;;;;;;15.87;50.34;99461.28;5105221;28;20040;-75
2022/05/01 08:37:00;;;;;;;8.27;7.25;;;;;;;15.79;50.58;99461.00;5105330;28;20144;-75
2022/05/01 08:39:32;;;;;;;7.25;6.25;;;;;;;15.47;50.88;99428.66;5105155;28;20047;-75
2022/05/01 08:42:06;;;;;;;8.77;6.97;;;;;;;15.57;51.48;99458.19;5105698;28;20089;-74
2022/05/01 08:44:40;;;;;;;8.15;7.20;;;;;;;15.48;51.77;99457.06;5088990;28;20044;-75
2022/05/01 08:47:22;;;;;;;6.80;6.10;;;;;;;15.43;52.53;99459.22;5105456;28;20048;-75
2022/05/01 08:49:58;;;;;;;10.27;6.78;;;;;;;15.37;52.35;99465.00;5121805;28;20238;-75
2022/05/01 08:52:35;;;;;;;8.00;6.97;;;;;;;15.34;52.62;99452.72;5105465;28;20048;-75
2022/05/01 08:55:09;;;;;;;8.52;6.97;;;;;;;15.23;51.77;99419.78;5105370;28;20044;-75
2022/05/01 08:57:41;;;;;;;6.95;6.25;;;;;;;15.48;51.99;99456.22;5105304;28;20055;-74
2022/05/01 09:00:17;;;;;;;8.20;6.60;;;;;;;15.47;52.21;99466.03;5105568;28;20040;-75
2022/05/01 09:02:51;;;;;;;7.72;6.90;;;;;;;15.51;51.60;99467.53;5105582;28;20090;-75
2022/05/01 09:05:23;;;;;;;8.98;8.07;;;;;;;15.51;51.62;99451.50;5105275;28;20062;-75
2022/05/01 09:07:55;;;;;;;10.63;8.93;;;;;;;15.42;52.14;99459.34;5105306;28;20109;-75
2022/05/01 09:10:28;;;;;;;8.07;7.22;;;;;;;15.35;51.62;99462.44;5105606;28;20043;-75
2022/05/01 09:12:59;;;;;;;10.95;7.78;;;;;;;15.26;52.01;99470.28;5105634;28;20040;-75
2022/05/01 09:15:37;;;;;;;7.78;6.60;;;;;;;15.22;52.41;99474.13;5105730;28;20040;-74
2022/05/01 09:18:11;;;;;;;8.68;7.80;;;;;;;15.11;52.00;99488.25;5105065;28;20048;-74
2022/05/01 09:21:02;;;;;;;11.35;9.48;;;;;;;15.11;52.39;99490.06;5105646;28;20040;-75
2022/05/01 09:23:38;;;;;;;9.43;8.43;;;;;;;15.04;53.25;99478.97;5104705;28;20086;-74
2022/05/01 09:26:12;;;;;;;8.68;7.18;;;;;;;15.06;52.88;99488.59;5104819;28;20040;-75
2022/05/01 09:28:51;;;;;;;8.75;7.82;;;;;;;13.19;53.51;99240.44;5105017;28;20044;-74
2022/05/01 09:31:47;;;;;;;7.65;6.85;;;;;;;14.84;54.15;99493.75;5105705;28;20040;-75
2022/05/01 09:34:20;;;;;;;;;;;;;;;14.79;54.56;99495.03;5106172;28;20089;-74
2022/05/01 09:36:53;;;;;;;7.15;6.13;;;;;;;14.68;54.43;99496.63;5105027;28;19927;-76
2022/05/01 09:39:27;;;;;;;8.70;6.40;;;;;;;14.70;54.73;99496.53;5104350;28;20040;-74
2022/05/01 09:42:14;;;;;;;7.70;6.50;;;;;;;14.67;55.26;99497.59;5105328;28;20236;-72
2022/05/01 09:45:05;;;;;;;7.72;6.13;;;;;;;13.86;55.78;99374.31;5105317;28;20036;-73
2022/05/01 09:47:41;;;;;;;8.20;6.10;;;;;;;14.69;55.63;99481.47;5105010;28;20044;-75
2022/05/01 09:50:15;;;;;;;8.40;5.72;;;;;;;14.78;54.66;99485.31;5104298;28;20086;-74
2022/05/01 09:52:59;;;;;;;7.72;6.43;;;;;;;14.81;56.02;99477.09;5107960;28;20101;-75
2022/05/01 09:55:31;;;;;;;8.00;6.10;;;;;;;14.79;55.00;99471.00;5109100;28;20081;-74
2022/05/01 09:58:06;;;;;;;8.43;6.05;;;;;;;14.82;53.75;99471.66;5107779;28;20044;-74
2022/05/01 10:00:41;;;;;;;7.85;6.57;;;;;;;14.38;53.80;99387.56;5108856;28;20044;-74
2022/05/01 10:03:27;;;;;;;7.30;6.55;;;;;;;14.95;55.42;99459.13;5108422;28;20040;-74
2022/05/01 10:06:01;;;;;;;8.50;6.88;;;;;;;14.69;54.25;99409.44;5092025;28;20090;-74
2022/05/01 10:08:33;;;;;;;7.28;6.18;;;;;;;14.98;54.96;99447.41;5107565;28;20047;-74
2022/05/01 10:11:06;;;;;;;9.00;7.07;;;;;;;15.01;55.38;99436.50;5107458;28;20097;-74
2022/05/01 10:13:39;;;;;;;10.15;8.00;;;;;;;14.80;55.47;99395.34;5108582;28;20040;-75
2022/05/01 10:16:15;;;;;;;8.55;7.75;;;;;;;15.11;55.64;99432.19;5108235;28;20082;-74
2022/05/01 10:18:49;;;;;;;8.27;7.47;;;;;;;15.15;56.75;99432.84;5108408;28;20044;-74
2022/05/01 10:21:22;;;;;;;8.15;7.07;;;;;;;15.19;55.94;99431.63;5107740;28;20113;-74
2022/05/01 10:23:55;;;;;;;8.90;8.00;;;;;;;15.23;56.12;99433.13;5107534;28;20089;-74
2022/05/01 10:26:31;;;;;;;10.68;7.80;;;;;;;15.22;56.22;99439.44;5108240;28;20058;-74
2022/05/01 10:29:35;;;;;;;9.00;7.50;;;;;;;15.21;58.60;99443.06;5107925;28;20063;-74
2022/05/01 10:32:33;;;;;;;11.05;8.50;;;;;;;15.18;58.52;99444.13;5108425;28;20078;-74
2022/05/01 10:35:30;;;;;;;7.97;7.18;;;;;;;14.91;57.38;99404.28;5107614;28;20047;-75
2022/05/01 10:38:12;;;;;;;8.60;7.57;;;;;;;15.15;56.55;99444.38;5106063;28;20184;-75
2022/05/01 10:40:49;;;;;;;7.65;6.72;;;;;;;15.20;55.34;99449.38;5107418;28;20188;-75
2022/05/01 10:43:28;;;;;;;7.95;6.43;;;;;;;15.22;55.16;99453.63;5107936;28;20039;-74
2022/05/01 10:46:01;;;;;;;8.02;6.35;;;;;;;15.22;54.62;99450.09;5107630;28;20040;-74
2022/05/01 10:48:36;;;;;;;7.50;6.30;;;;;;;15.20;54.71;99452.88;5106706;28;20040;-75
2022/05/01 10:51:49;;;;;;;8.05;7.10;;;;;;;15.16;55.15;99451.41;5106762;28;20040;-75
2022/05/01 10:54:36;;;;;;;7.43;6.60;;;;;;;14.89;55.88;99442.72;5107783;28;20047;-75
2022/05/01 10:57:11;;;;;;;7.88;5.85;;;;;;;14.80;55.69;99414.03;5106741;28;20086;-74
2022/05/01 10:59:46;;;;;;;7.05;6.32;;;;;;;15.12;56.34;99478.44;5107885;28;20044;-75
2022/05/01 11:02:30;;;;;;;8.15;6.35;;;;;;;15.04;58.49;99474.50;5107318;28;20081;-75
2022/05/01 11:05:05;;;;;;;6.82;5.88;;;;;;;14.98;57.48;99477.59;5106531;28;20177;-75
2022/05/01 11:07:40;;;;;;;;;;;;;;;14.87;60.28;99474.84;5107734;28;20235;-74
2022/05/01 11:10:13;;;;;;;7.20;6.45;;;;;;;14.86;57.37;99467.81;5107677;28;20168;-74
2022/05/01 11:12:46;;;;;;;8.00;7.13;;;;;;;14.88;57.77;99465.88;5106993;28;20047;-75
2022/05/01 11:15:27;;;;;;;9.45;6.93;;;;;;;14.85;59.86;99466.09;5106293;28;20201;-75
2022/05/01 11:18:00;;;;;;;8.43;7.00;;;;;;;14.85;58.51;99465.25;5090337;28;20040;-75
2022/05/01 11:20:35;;;;;;;10.73;8.32;;;;;;;14.80;59.40;99460.22;5107212;28;20052;-74
2022/05/01 11:23:46;;;;;;;8.70;7.63;;;;;;;14.73;62.11;99449.16;5107278;28;20246;-75
2022/05/01 11:26:18;;;;;;;21.17;15.93;;;;;;;14.72;59.90;99439.44;5099932;28;20301;-74
2022/05/01 11:28:53;;;;;;;25.08;16.83;;;;;;;14.72;59.99;99439.44;5107227;28;20055;-74
2022/05/01 11:31:46;;;;;;;29.75;21.55;;;;;;;14.79;62.77;99425.66;5106350;28;20047;-75
2022/05/01 11:34:50;;;;;;;15.82;11.07;;;;;;;14.89;62.41;99418.69;5107111;28;20040;-74
2022/05/01 11:37:24;;;;;;;11.57;8.82;;;;;;;14.95;60.13;99413.78;5106993;28;20117;-75
2022/05/01 11:40:23;;;;;;;11.43;9.30;;;;;;;14.97;63.25;99413.66;5106975;28;20051;-75
2022/05/01 11:43:18;;;;;;;10.23;9.07;;;;;;;14.96;63.88;99401.28;5106824;28;20081;-72
2022/05/01 11:45:50;;;;;;;12.25;9.85;;;;;;;15.03;61.05;99398.06;5104826;28;20307;-71
2022/05/01 11:48:21;;;;;;;8.80;7.90;;;;;;;15.00;61.64;99400.94;5106723;28;20093;-74
2022/05/01 11:50:52;;;;;;;13.57;8.10;;;;;;;14.01;60.61;99217.88;5107031;28;20040;-74
2022/05/01 11:53:23;;;;;;;7.85;6.70;;;;;;;15.10;60.74;99390.47;5106247;28;20089;-74
2022/05/01 12:04:36;;;;;;;8.27;6.35;;;;;;;15.23;59.96;99363.72;5106456;28;20140;-74
2022/05/01 12:07:11;;;;;;;8.95;6.43;;;;;;;15.20;61.23;99371.94;5107129;28;20048;-74
2022/05/01 12:09:46;;;;;;;20.95;13.05;;;;;;;15.18;61.55;99363.19;5106316;28;20043;-74
2022/05/01 12:12:21;;;;;;;15.10;11.80;;;;;;;15.21;60.96;99360.31;5106710;28;20296;-74
2022/05/01 12:14:53;;;;;;;15.02;12.05;;;;;;;14.49;59.76;99239.28;5106040;28;20040;-74
2022/05/01 12:17:25;;;;;;;14.27;10.35;;;;;;;15.23;59.49;99358.38;5105718;28;20117;-74
2022/05/01 12:19:58;;;;;;;23.75;16.25;;;;;;;14.06;59.08;99157.97;5106363;28;20231;-74
2022/05/01 12:22:37;;;;;;;21.58;15.85;;;;;;;15.30;58.88;99354.28;5106299;28;20036;-73
2022/05/01 12:25:12;;;;;;;11.70;9.00;;;;;;;15.30;59.03;99357.81;5106865;28;20044;-74
2022/05/01 12:27:47;;;;;;;16.85;14.02;;;;;;;15.36;58.96;99359.16;5106129;28;20058;-74
2022/05/01 12:30:22;;;;;;;12.52;8.65;;;;;;;15.39;57.90;99348.25;5105909;28;20055;-73
2022/05/01 12:32:54;;;;;;;;;;;;;;;15.32;58.48;99355.00;5106121;28;20285;-74
2022/05/01 12:35:27;;;;;;;7.68;5.82;;;;;;;14.90;58.10;99309.19;5106089;28;19916;-71
2022/05/01 12:38:00;;;;;;;8.40;6.70;;;;;;;15.43;58.17;99354.22;5105460;28;20064;-73